sensor_id;sensor_type;location;lat;lon;timestamp;temperature;humidity
296;DHT22;132;48.770;9.200;2022-09-27T00:02:32;10.40;1.00
296;DHT22;132;48.770;9.200;2022-09-27T00:05:19;10.50;1.00
296;DHT22;132;48.770;9.200;2022-09-27T00:08:06;10.40;1.00
296;DHT22;132;48.770;9.200;2022-09-27T00:11:01;10.40;1.00
296;DHT22;132;48.770;9.200;2022-09-27T00:13:48;10.40;1.00
296;DHT22;132;48.770;9.200;2022-09-27T00:16:37;10.40;1.00
296;DHT22;132;48.770;9.200;2022-09-27T00:19:24;10.40;1.00
296;DHT22;132;48.770;9.200;2022-09-27T00:22:11;10.30;1.00
296;DHT22;132;48.770;9.200;2022-09-27T00:24:58;10.40;1.00
296;DHT22;132;48.770;9.200;2022-09-27T00:27:45;10.40;1.00
296;DHT22;132;48.770;9.200;2022-09-27T00:30:31;10.40;1.00
296;DHT22;132;48.770;9.200;2022-09-27T00:33:19;10.40;1.00
296;DHT22;132;48.770;9.200;2022-09-27T00:36:05;10.60;1.00
296;DHT22;132;48.770;9.200;2022-09-27T00:38:52;10.40;1.00
296;DHT22;132;48.770;9.200;2022-09-27T00:41:39;10.40;1.00
296;DHT22;132;48.770;9.200;2022-09-27T00:47:26;10.80;1.00
296;DHT22;132;48.770;9.200;2022-09-27T00:50:25;10.40;1.00
296;DHT22;132;48.770;9.200;2022-09-27T00:56:37;10.40;1.00
296;DHT22;132;48.770;9.200;2022-09-27T00:59:44;10.40;1.00
296;DHT22;132;48.770;9.200;2022-09-27T01:02:32;10.50;1.00
296;DHT22;132;48.770;9.200;2022-09-27T01:05:23;10.50;1.00
296;DHT22;132;48.770;9.200;2022-09-27T01:08:11;10.50;1.00
296;DHT22;132;48.770;9.200;2022-09-27T01:14:47;10.40;1.00
296;DHT22;132;48.770;9.200;2022-09-27T01:17:53;10.60;1.00
296;DHT22;132;48.770;9.200;2022-09-27T01:21:23;10.40;1.00
296;DHT22;132;48.770;9.200;2022-09-27T01:33:52;11.20;1.00
296;DHT22;132;48.770;9.200;2022-09-27T01:36:44;10.60;1.00
296;DHT22;132;48.770;9.200;2022-09-27T01:40:01;10.50;1.00
296;DHT22;132;48.770;9.200;2022-09-27T01:43:04;10.60;1.00
296;DHT22;132;48.770;9.200;2022-09-27T01:46:00;10.50;1.00
296;DHT22;132;48.770;9.200;2022-09-27T01:49:30;9.70;1.00
296;DHT22;132;48.770;9.200;2022-09-27T01:52:20;10.50;1.00
296;DHT22;132;48.770;9.200;2022-09-27T01:55:11;10.40;1.00
296;DHT22;132;48.770;9.200;2022-09-27T01:58:24;10.60;1.00
296;DHT22;132;48.770;9.200;2022-09-27T02:01:14;10.60;1.00
296;DHT22;132;48.770;9.200;2022-09-27T02:04:02;10.50;1.00
296;DHT22;132;48.770;9.200;2022-09-27T02:07:44;10.60;1.00
296;DHT22;132;48.770;9.200;2022-09-27T02:10:33;10.60;1.00
296;DHT22;132;48.770;9.200;2022-09-27T02:13:37;10.70;1.00
296;DHT22;132;48.770;9.200;2022-09-27T02:17:04;10.70;1.00
296;DHT22;132;48.770;9.200;2022-09-27T02:23:13;10.80;1.00
296;DHT22;132;48.770;9.200;2022-09-27T02:29:20;10.70;1.00
296;DHT22;132;48.770;9.200;2022-09-27T02:32:12;10.70;1.00
296;DHT22;132;48.770;9.200;2022-09-27T02:35:03;10.70;1.00
296;DHT22;132;48.770;9.200;2022-09-27T02:37:51;10.60;1.00
296;DHT22;132;48.770;9.200;2022-09-27T02:40:44;10.60;1.00
296;DHT22;132;48.770;9.200;2022-09-27T02:43:32;10.50;1.00
296;DHT22;132;48.770;9.200;2022-09-27T02:59:39;10.30;1.00
296;DHT22;132;48.770;9.200;2022-09-27T03:02:48;10.20;1.00
296;DHT22;132;48.770;9.200;2022-09-27T03:06:12;9.00;1.00
296;DHT22;132;48.770;9.200;2022-09-27T03:09:00;10.10;1.00
296;DHT22;132;48.770;9.200;2022-09-27T03:11:47;9.90;1.00
296;DHT22;132;48.770;9.200;2022-09-27T03:14:34;10.00;1.00
296;DHT22;132;48.770;9.200;2022-09-27T03:17:30;9.80;1.00
296;DHT22;132;48.770;9.200;2022-09-27T03:20:40;9.90;1.00
296;DHT22;132;48.770;9.200;2022-09-27T03:23:29;9.90;1.00
296;DHT22;132;48.770;9.200;2022-09-27T03:26:16;9.90;1.00
296;DHT22;132;48.770;9.200;2022-09-27T03:29:03;9.90;1.00
296;DHT22;132;48.770;9.200;2022-09-27T03:31:49;9.90;1.00
296;DHT22;132;48.770;9.200;2022-09-27T03:34:54;9.90;1.00
296;DHT22;132;48.770;9.200;2022-09-27T03:37:41;9.90;1.00
296;DHT22;132;48.770;9.200;2022-09-27T03:40:28;9.80;1.00
296;DHT22;132;48.770;9.200;2022-09-27T03:43:15;9.80;1.00
296;DHT22;132;48.770;9.200;2022-09-27T03:46:05;9.70;1.00
296;DHT22;132;48.770;9.200;2022-09-27T03:48:52;9.80;1.00
296;DHT22;132;48.770;9.200;2022-09-27T03:51:38;9.70;1.00
296;DHT22;132;48.770;9.200;2022-09-27T03:54:25;9.70;1.00
296;DHT22;132;48.770;9.200;2022-09-27T03:57:12;9.80;1.00
296;DHT22;132;48.770;9.200;2022-09-27T04:00:00;9.80;1.00
296;DHT22;132;48.770;9.200;2022-09-27T04:02:59;9.80;1.00
296;DHT22;132;48.770;9.200;2022-09-27T04:06:05;9.80;1.00
296;DHT22;132;48.770;9.200;2022-09-27T04:08:59;9.80;1.00
296;DHT22;132;48.770;9.200;2022-09-27T04:11:58;9.90;1.00
296;DHT22;132;48.770;9.200;2022-09-27T04:14:46;9.90;1.00
296;DHT22;132;48.770;9.200;2022-09-27T04:17:55;9.90;1.00
296;DHT22;132;48.770;9.200;2022-09-27T04:21:02;9.90;1.00
296;DHT22;132;48.770;9.200;2022-09-27T04:23:51;10.00;1.00
296;DHT22;132;48.770;9.200;2022-09-27T04:26:41;10.00;1.00
296;DHT22;132;48.770;9.200;2022-09-27T04:29:33;10.20;1.00
296;DHT22;132;48.770;9.200;2022-09-27T04:32:40;10.00;1.00
296;DHT22;132;48.770;9.200;2022-09-27T04:35:46;10.10;1.00
296;DHT22;132;48.770;9.200;2022-09-27T04:38:54;10.00;1.00
296;DHT22;132;48.770;9.200;2022-09-27T04:41:41;10.00;1.00
296;DHT22;132;48.770;9.200;2022-09-27T04:44:28;10.00;1.00
296;DHT22;132;48.770;9.200;2022-09-27T04:47:14;10.10;1.00
296;DHT22;132;48.770;9.200;2022-09-27T04:50:03;10.00;1.00
296;DHT22;132;48.770;9.200;2022-09-27T04:52:51;10.60;1.00
296;DHT22;132;48.770;9.200;2022-09-27T04:55:38;10.00;1.00
296;DHT22;132;48.770;9.200;2022-09-27T04:58:25;10.00;1.00
296;DHT22;132;48.770;9.200;2022-09-27T05:01:11;10.00;1.00
296;DHT22;132;48.770;9.200;2022-09-27T05:04:19;10.00;1.00
296;DHT22;132;48.770;9.200;2022-09-27T05:07:09;10.10;1.00
296;DHT22;132;48.770;9.200;2022-09-27T05:10:02;10.10;1.00
296;DHT22;132;48.770;9.200;2022-09-27T05:12:49;10.10;1.00
296;DHT22;132;48.770;9.200;2022-09-27T05:15:36;10.10;1.00
296;DHT22;132;48.770;9.200;2022-09-27T05:18:51;10.10;1.00
296;DHT22;132;48.770;9.200;2022-09-27T05:22:01;10.20;1.00
296;DHT22;132;48.770;9.200;2022-09-27T05:24:48;10.20;1.00
296;DHT22;132;48.770;9.200;2022-09-27T05:27:35;10.20;1.00
296;DHT22;132;48.770;9.200;2022-09-27T05:30:22;9.90;1.00
296;DHT22;132;48.770;9.200;2022-09-27T05:33:23;10.20;1.00
296;DHT22;132;48.770;9.200;2022-09-27T05:36:28;10.10;1.00
296;DHT22;132;48.770;9.200;2022-09-27T05:39:16;10.10;1.00
296;DHT22;132;48.770;9.200;2022-09-27T05:42:04;10.10;1.00
296;DHT22;132;48.770;9.200;2022-09-27T05:44:52;10.20;1.00
296;DHT22;132;48.770;9.200;2022-09-27T05:47:39;10.20;1.00
296;DHT22;132;48.770;9.200;2022-09-27T05:53:13;10.20;1.00
296;DHT22;132;48.770;9.200;2022-09-27T05:56:03;10.20;1.00
296;DHT22;132;48.770;9.200;2022-09-27T05:59:06;10.10;1.00
296;DHT22;132;48.770;9.200;2022-09-27T06:02:13;10.10;1.00
296;DHT22;132;48.770;9.200;2022-09-27T06:05:11;10.50;1.00
296;DHT22;132;48.770;9.200;2022-09-27T06:08:09;10.00;1.00
296;DHT22;132;48.770;9.200;2022-09-27T06:11:05;10.10;1.00
296;DHT22;132;48.770;9.200;2022-09-27T06:13:53;10.10;1.00
296;DHT22;132;48.770;9.200;2022-09-27T06:16:40;10.10;1.00
296;DHT22;132;48.770;9.200;2022-09-27T06:19:26;10.20;1.00
296;DHT22;132;48.770;9.200;2022-09-27T06:22:14;10.20;1.00
296;DHT22;132;48.770;9.200;2022-09-27T06:25:09;10.20;1.00
296;DHT22;132;48.770;9.200;2022-09-27T06:28:12;10.20;1.00
296;DHT22;132;48.770;9.200;2022-09-27T06:31:00;10.30;1.00
296;DHT22;132;48.770;9.200;2022-09-27T06:33:59;10.30;1.00
296;DHT22;132;48.770;9.200;2022-09-27T06:36:49;10.30;1.00
296;DHT22;132;48.770;9.200;2022-09-27T06:39:35;10.30;1.00
296;DHT22;132;48.770;9.200;2022-09-27T06:42:41;10.20;1.00
296;DHT22;132;48.770;9.200;2022-09-27T06:45:37;10.80;1.00
296;DHT22;132;48.770;9.200;2022-09-27T06:48:42;10.70;1.00
296;DHT22;132;48.770;9.200;2022-09-27T06:51:36;10.80;1.00
296;DHT22;132;48.770;9.200;2022-09-27T06:54:23;11.00;1.00
296;DHT22;132;48.770;9.200;2022-09-27T06:57:10;10.80;1.00
296;DHT22;132;48.770;9.200;2022-09-27T07:00:16;10.60;1.00
296;DHT22;132;48.770;9.200;2022-09-27T07:03:29;10.80;1.00
296;DHT22;132;48.770;9.200;2022-09-27T07:06:38;10.70;1.00
296;DHT22;132;48.770;9.200;2022-09-27T07:09:36;11.00;1.00
296;DHT22;132;48.770;9.200;2022-09-27T07:12:27;10.60;1.00
296;DHT22;132;48.770;9.200;2022-09-27T07:15:15;10.70;1.00
296;DHT22;132;48.770;9.200;2022-09-27T07:18:03;10.70;1.00
296;DHT22;132;48.770;9.200;2022-09-27T07:20:52;10.70;1.00
296;DHT22;132;48.770;9.200;2022-09-27T07:23:39;10.70;1.00
296;DHT22;132;48.770;9.200;2022-09-27T07:29:15;10.90;1.00
296;DHT22;132;48.770;9.200;2022-09-27T07:32:03;11.00;1.00
296;DHT22;132;48.770;9.200;2022-09-27T07:34:50;11.00;1.00
296;DHT22;132;48.770;9.200;2022-09-27T07:37:37;11.00;1.00
296;DHT22;132;48.770;9.200;2022-09-27T07:40:25;11.00;1.00
296;DHT22;132;48.770;9.200;2022-09-27T07:43:12;10.80;1.00
296;DHT22;132;48.770;9.200;2022-09-27T07:45:59;10.90;1.00
296;DHT22;132;48.770;9.200;2022-09-27T07:48:56;11.00;1.00
296;DHT22;132;48.770;9.200;2022-09-27T07:52:00;11.00;1.00
296;DHT22;132;48.770;9.200;2022-09-27T07:55:12;11.00;1.00
296;DHT22;132;48.770;9.200;2022-09-27T07:58:12;11.00;1.00
296;DHT22;132;48.770;9.200;2022-09-27T08:01:00;11.00;1.00
296;DHT22;132;48.770;9.200;2022-09-27T08:03:47;11.20;1.00
296;DHT22;132;48.770;9.200;2022-09-27T08:06:35;10.80;1.00
296;DHT22;132;48.770;9.200;2022-09-27T08:09:23;11.50;1.00
296;DHT22;132;48.770;9.200;2022-09-27T08:15:35;11.20;1.00
296;DHT22;132;48.770;9.200;2022-09-27T08:18:25;11.30;1.00
296;DHT22;132;48.770;9.200;2022-09-27T08:21:19;11.30;1.00
296;DHT22;132;48.770;9.200;2022-09-27T08:24:30;11.20;1.00
296;DHT22;132;48.770;9.200;2022-09-27T08:27:34;11.00;1.00
296;DHT22;132;48.770;9.200;2022-09-27T08:33:20;10.90;1.00
296;DHT22;132;48.770;9.200;2022-09-27T08:36:11;11.10;1.00
296;DHT22;132;48.770;9.200;2022-09-27T08:38:58;11.20;1.00
296;DHT22;132;48.770;9.200;2022-09-27T08:42:14;11.40;1.00
296;DHT22;132;48.770;9.200;2022-09-27T08:45:40;11.50;1.00
296;DHT22;132;48.770;9.200;2022-09-27T08:48:28;11.60;1.00
296;DHT22;132;48.770;9.200;2022-09-27T08:51:16;11.70;1.00
296;DHT22;132;48.770;9.200;2022-09-27T08:54:13;11.70;1.00
296;DHT22;132;48.770;9.200;2022-09-27T08:57:12;11.80;1.00
296;DHT22;132;48.770;9.200;2022-09-27T09:00:04;11.90;1.00
296;DHT22;132;48.770;9.200;2022-09-27T09:02:52;11.80;1.00
296;DHT22;132;48.770;9.200;2022-09-27T09:05:39;11.80;1.00
296;DHT22;132;48.770;9.200;2022-09-27T09:11:34;11.70;1.00
296;DHT22;132;48.770;9.200;2022-09-27T09:15:09;11.70;1.00
296;DHT22;132;48.770;9.200;2022-09-27T09:21:34;11.90;1.00
296;DHT22;132;48.770;9.200;2022-09-27T09:28:03;12.20;1.00
296;DHT22;132;48.770;9.200;2022-09-27T09:34:11;12.30;1.00
296;DHT22;132;48.770;9.200;2022-09-27T09:43:38;12.10;1.00
296;DHT22;132;48.770;9.200;2022-09-27T09:49:42;12.30;1.00
296;DHT22;132;48.770;9.200;2022-09-27T09:52:43;12.20;1.00
296;DHT22;132;48.770;9.200;2022-09-27T09:55:34;12.50;1.00
296;DHT22;132;48.770;9.200;2022-09-27T10:01:24;12.80;1.00
296;DHT22;132;48.770;9.200;2022-09-27T10:04:23;12.90;1.00
296;DHT22;132;48.770;9.200;2022-09-27T10:07:16;12.90;1.00
296;DHT22;132;48.770;9.200;2022-09-27T10:10:05;12.90;1.00
296;DHT22;132;48.770;9.200;2022-09-27T10:13:18;12.90;1.00
296;DHT22;132;48.770;9.200;2022-09-27T10:16:10;13.00;1.00
296;DHT22;132;48.770;9.200;2022-09-27T10:19:02;13.20;1.00
296;DHT22;132;48.770;9.200;2022-09-27T10:21:50;13.50;1.00
296;DHT22;132;48.770;9.200;2022-09-27T10:25:12;13.60;1.00
296;DHT22;132;48.770;9.200;2022-09-27T10:31:22;13.50;1.00
296;DHT22;132;48.770;9.200;2022-09-27T10:34:36;13.30;1.00
296;DHT22;132;48.770;9.200;2022-09-27T10:37:26;12.90;1.00
296;DHT22;132;48.770;9.200;2022-09-27T10:40:27;12.70;1.00
296;DHT22;132;48.770;9.200;2022-09-27T10:43:35;13.00;1.00
296;DHT22;132;48.770;9.200;2022-09-27T10:46:39;12.90;1.00
296;DHT22;132;48.770;9.200;2022-09-27T10:49:41;13.10;1.00
296;DHT22;132;48.770;9.200;2022-09-27T10:53:12;13.40;1.00
296;DHT22;132;48.770;9.200;2022-09-27T10:56:01;13.70;1.00
296;DHT22;132;48.770;9.200;2022-09-27T10:58:48;13.70;1.00
296;DHT22;132;48.770;9.200;2022-09-27T11:01:43;13.70;1.00
296;DHT22;132;48.770;9.200;2022-09-27T11:04:38;13.80;1.00
296;DHT22;132;48.770;9.200;2022-09-27T11:07:25;13.80;1.00
296;DHT22;132;48.770;9.200;2022-09-27T11:10:25;13.70;1.00
296;DHT22;132;48.770;9.200;2022-09-27T11:13:19;13.60;1.00
296;DHT22;132;48.770;9.200;2022-09-27T11:16:29;13.60;1.00
296;DHT22;132;48.770;9.200;2022-09-27T11:19:47;13.80;1.00
296;DHT22;132;48.770;9.200;2022-09-27T11:22:40;13.90;1.00
296;DHT22;132;48.770;9.200;2022-09-27T11:25:43;13.90;1.00
296;DHT22;132;48.770;9.200;2022-09-27T11:44:24;13.90;1.00
296;DHT22;132;48.770;9.200;2022-09-27T11:47:19;13.80;1.00
296;DHT22;132;48.770;9.200;2022-09-27T11:50:42;13.80;1.00
296;DHT22;132;48.770;9.200;2022-09-27T11:57:22;13.70;1.00
296;DHT22;132;48.770;9.200;2022-09-27T12:00:19;13.70;1.00
296;DHT22;132;48.770;9.200;2022-09-27T12:09:58;13.40;1.00
296;DHT22;132;48.770;9.200;2022-09-27T12:12:51;13.20;1.00
296;DHT22;132;48.770;9.200;2022-09-27T12:15:42;13.00;1.00
296;DHT22;132;48.770;9.200;2022-09-27T12:18:35;12.60;1.00
296;DHT22;132;48.770;9.200;2022-09-27T12:21:29;12.30;1.00
296;DHT22;132;48.770;9.200;2022-09-27T12:24:21;11.90;1.00
296;DHT22;132;48.770;9.200;2022-09-27T12:27:48;11.90;1.00
296;DHT22;132;48.770;9.200;2022-09-27T12:30:47;11.00;1.00
296;DHT22;132;48.770;9.200;2022-09-27T12:33:42;10.90;1.00
296;DHT22;132;48.770;9.200;2022-09-27T12:36:35;10.70;1.00
296;DHT22;132;48.770;9.200;2022-09-27T12:45:38;11.40;1.00
296;DHT22;132;48.770;9.200;2022-09-27T12:51:20;11.40;1.00
296;DHT22;132;48.770;9.200;2022-09-27T13:00:23;11.90;1.00
296;DHT22;132;48.770;9.200;2022-09-27T13:03:25;12.10;1.00
296;DHT22;132;48.770;9.200;2022-09-27T13:12:34;12.80;1.00
296;DHT22;132;48.770;9.200;2022-09-27T13:15:31;12.90;1.00
296;DHT22;132;48.770;9.200;2022-09-27T13:24:47;12.30;1.00
296;DHT22;132;48.770;9.200;2022-09-27T13:27:55;12.40;1.00
296;DHT22;132;48.770;9.200;2022-09-27T13:30:49;12.10;1.00
296;DHT22;132;48.770;9.200;2022-09-27T13:33:50;11.60;1.00
296;DHT22;132;48.770;9.200;2022-09-27T13:36:42;11.30;1.00
296;DHT22;132;48.770;9.200;2022-09-27T13:39:31;12.30;1.00
296;DHT22;132;48.770;9.200;2022-09-27T13:46:06;11.50;1.00
296;DHT22;132;48.770;9.200;2022-09-27T13:49:15;11.50;1.00
296;DHT22;132;48.770;9.200;2022-09-27T13:52:36;11.50;1.00
296;DHT22;132;48.770;9.200;2022-09-27T13:55:45;11.70;1.00
296;DHT22;132;48.770;9.200;2022-09-27T13:58:59;11.30;1.00
296;DHT22;132;48.770;9.200;2022-09-27T14:02:16;11.40;1.00
296;DHT22;132;48.770;9.200;2022-09-27T14:05:10;11.50;1.00
296;DHT22;132;48.770;9.200;2022-09-27T14:08:00;11.10;1.00
296;DHT22;132;48.770;9.200;2022-09-27T14:10:48;10.90;1.00
296;DHT22;132;48.770;9.200;2022-09-27T14:13:37;10.90;1.00
296;DHT22;132;48.770;9.200;2022-09-27T14:16:34;10.70;1.00
296;DHT22;132;48.770;9.200;2022-09-27T14:19:23;10.60;1.00
296;DHT22;132;48.770;9.200;2022-09-27T14:22:16;10.60;1.00
296;DHT22;132;48.770;9.200;2022-09-27T14:25:16;10.20;1.00
296;DHT22;132;48.770;9.200;2022-09-27T14:28:19;10.30;1.00
296;DHT22;132;48.770;9.200;2022-09-27T14:31:17;11.00;1.00
296;DHT22;132;48.770;9.200;2022-09-27T14:34:28;10.70;1.00
296;DHT22;132;48.770;9.200;2022-09-27T14:37:24;11.40;1.00
296;DHT22;132;48.770;9.200;2022-09-27T14:40:21;11.90;1.00
296;DHT22;132;48.770;9.200;2022-09-27T14:43:19;10.80;1.00
296;DHT22;132;48.770;9.200;2022-09-27T14:46:06;10.90;1.00
296;DHT22;132;48.770;9.200;2022-09-27T14:48:53;11.30;1.00
296;DHT22;132;48.770;9.200;2022-09-27T14:51:40;11.40;1.00
296;DHT22;132;48.770;9.200;2022-09-27T14:54:28;12.30;1.00
296;DHT22;132;48.770;9.200;2022-09-27T14:57:16;11.10;1.00
296;DHT22;132;48.770;9.200;2022-09-27T15:03:07;11.30;1.00
296;DHT22;132;48.770;9.200;2022-09-27T15:05:55;11.50;1.00
296;DHT22;132;48.770;9.200;2022-09-27T15:08:45;11.40;1.00
296;DHT22;132;48.770;9.200;2022-09-27T15:11:34;11.90;1.00
296;DHT22;132;48.770;9.200;2022-09-27T15:14:22;10.90;1.00
296;DHT22;132;48.770;9.200;2022-09-27T15:17:15;12.00;1.00
296;DHT22;132;48.770;9.200;2022-09-27T15:23:04;10.90;1.00
296;DHT22;132;48.770;9.200;2022-09-27T15:26:03;10.70;1.00
296;DHT22;132;48.770;9.200;2022-09-27T15:28:52;10.90;1.00
296;DHT22;132;48.770;9.200;2022-09-27T15:31:39;11.40;1.00
296;DHT22;132;48.770;9.200;2022-09-27T15:34:25;11.10;1.00
296;DHT22;132;48.770;9.200;2022-09-27T15:37:34;11.10;1.00
296;DHT22;132;48.770;9.200;2022-09-27T15:41:00;11.00;1.00
296;DHT22;132;48.770;9.200;2022-09-27T15:43:49;11.10;1.00
296;DHT22;132;48.770;9.200;2022-09-27T15:46:38;11.10;1.00
296;DHT22;132;48.770;9.200;2022-09-27T15:49:30;11.10;1.00
296;DHT22;132;48.770;9.200;2022-09-27T15:52:40;11.20;1.00
296;DHT22;132;48.770;9.200;2022-09-27T15:55:29;11.50;1.00
296;DHT22;132;48.770;9.200;2022-09-27T15:58:21;11.80;1.00
296;DHT22;132;48.770;9.200;2022-09-27T16:01:16;11.00;1.00
296;DHT22;132;48.770;9.200;2022-09-27T16:04:06;11.70;1.00
296;DHT22;132;48.770;9.200;2022-09-27T16:06:53;10.90;1.00
296;DHT22;132;48.770;9.200;2022-09-27T16:09:40;10.80;1.00
296;DHT22;132;48.770;9.200;2022-09-27T16:12:26;10.80;1.00
296;DHT22;132;48.770;9.200;2022-09-27T16:15:16;10.70;1.00
296;DHT22;132;48.770;9.200;2022-09-27T16:18:02;10.60;1.00
296;DHT22;132;48.770;9.200;2022-09-27T16:20:49;10.80;1.00
296;DHT22;132;48.770;9.200;2022-09-27T16:23:36;10.60;1.00
296;DHT22;132;48.770;9.200;2022-09-27T16:26:23;10.70;1.00
296;DHT22;132;48.770;9.200;2022-09-27T16:29:14;10.40;1.00
296;DHT22;132;48.770;9.200;2022-09-27T16:32:01;10.50;1.00
296;DHT22;132;48.770;9.200;2022-09-27T16:34:47;10.40;1.00
296;DHT22;132;48.770;9.200;2022-09-27T16:37:34;10.20;1.00
296;DHT22;132;48.770;9.200;2022-09-27T16:40:21;11.10;1.00
296;DHT22;132;48.770;9.200;2022-09-27T16:43:07;11.10;1.00
296;DHT22;132;48.770;9.200;2022-09-27T16:45:54;10.40;1.00
296;DHT22;132;48.770;9.200;2022-09-27T16:48:45;10.80;1.00
296;DHT22;132;48.770;9.200;2022-09-27T16:51:32;10.10;1.00
296;DHT22;132;48.770;9.200;2022-09-27T16:54:37;10.60;1.00
296;DHT22;132;48.770;9.200;2022-09-27T16:57:25;10.40;1.00
296;DHT22;132;48.770;9.200;2022-09-27T17:00:14;10.30;1.00
296;DHT22;132;48.770;9.200;2022-09-27T17:03:01;10.10;1.00
296;DHT22;132;48.770;9.200;2022-09-27T17:05:48;10.40;1.00
296;DHT22;132;48.770;9.200;2022-09-27T17:08:34;11.40;1.00
296;DHT22;132;48.770;9.200;2022-09-27T17:11:22;10.60;1.00
296;DHT22;132;48.770;9.200;2022-09-27T17:14:10;10.70;1.00
296;DHT22;132;48.770;9.200;2022-09-27T17:17:02;10.10;1.00
296;DHT22;132;48.770;9.200;2022-09-27T17:19:48;10.00;1.00
296;DHT22;132;48.770;9.200;2022-09-27T17:22:35;10.90;1.00
296;DHT22;132;48.770;9.200;2022-09-27T17:25:22;11.00;1.00
296;DHT22;132;48.770;9.200;2022-09-27T17:28:08;11.10;1.00
296;DHT22;132;48.770;9.200;2022-09-27T17:31:04;10.50;1.00
296;DHT22;132;48.770;9.200;2022-09-27T17:33:51;10.10;1.00
296;DHT22;132;48.770;9.200;2022-09-27T17:36:40;10.00;1.00
296;DHT22;132;48.770;9.200;2022-09-27T17:39:27;10.00;1.00
296;DHT22;132;48.770;9.200;2022-09-27T17:42:14;10.20;1.00
296;DHT22;132;48.770;9.200;2022-09-27T17:45:00;9.90;1.00
296;DHT22;132;48.770;9.200;2022-09-27T17:47:47;10.40;1.00
296;DHT22;132;48.770;9.200;2022-09-27T17:50:52;10.80;1.00
296;DHT22;132;48.770;9.200;2022-09-27T17:53:39;10.20;1.00
296;DHT22;132;48.770;9.200;2022-09-27T17:56:26;11.10;1.00
296;DHT22;132;48.770;9.200;2022-09-27T17:59:13;10.30;1.00
296;DHT22;132;48.770;9.200;2022-09-27T18:02:01;10.80;1.00
296;DHT22;132;48.770;9.200;2022-09-27T18:04:47;10.40;1.00
296;DHT22;132;48.770;9.200;2022-09-27T18:07:34;10.70;1.00
296;DHT22;132;48.770;9.200;2022-09-27T18:10:22;10.10;1.00
296;DHT22;132;48.770;9.200;2022-09-27T18:13:08;9.90;1.00
296;DHT22;132;48.770;9.200;2022-09-27T18:15:55;9.90;1.00
296;DHT22;132;48.770;9.200;2022-09-27T18:18:46;9.80;1.00
296;DHT22;132;48.770;9.200;2022-09-27T18:21:36;10.00;1.00
296;DHT22;132;48.770;9.200;2022-09-27T18:24:24;10.30;1.00
296;DHT22;132;48.770;9.200;2022-09-27T18:27:11;9.70;1.00
296;DHT22;132;48.770;9.200;2022-09-27T18:30:03;9.60;1.00
296;DHT22;132;48.770;9.200;2022-09-27T18:32:51;9.70;1.00
296;DHT22;132;48.770;9.200;2022-09-27T18:35:38;11.00;1.00
296;DHT22;132;48.770;9.200;2022-09-27T18:38:24;9.90;1.00
296;DHT22;132;48.770;9.200;2022-09-27T18:41:16;9.70;1.00
296;DHT22;132;48.770;9.200;2022-09-27T18:44:04;10.90;1.00
296;DHT22;132;48.770;9.200;2022-09-27T18:46:51;10.10;1.00
296;DHT22;132;48.770;9.200;2022-09-27T18:49:38;10.20;1.00
296;DHT22;132;48.770;9.200;2022-09-27T18:52:24;10.30;1.00
296;DHT22;132;48.770;9.200;2022-09-27T18:55:11;9.50;1.00
296;DHT22;132;48.770;9.200;2022-09-27T18:57:58;8.90;1.00
296;DHT22;132;48.770;9.200;2022-09-27T19:00:44;9.40;1.00
296;DHT22;132;48.770;9.200;2022-09-27T19:03:32;9.30;1.00
296;DHT22;132;48.770;9.200;2022-09-27T19:06:21;9.70;1.00
296;DHT22;132;48.770;9.200;2022-09-27T19:09:09;9.30;1.00
296;DHT22;132;48.770;9.200;2022-09-27T19:11:56;9.20;1.00
296;DHT22;132;48.770;9.200;2022-09-27T19:14:43;9.00;1.00
296;DHT22;132;48.770;9.200;2022-09-27T19:17:29;9.70;1.00
296;DHT22;132;48.770;9.200;2022-09-27T19:20:16;9.10;1.00
296;DHT22;132;48.770;9.200;2022-09-27T19:23:03;10.00;1.00
296;DHT22;132;48.770;9.200;2022-09-27T19:25:49;8.90;1.00
296;DHT22;132;48.770;9.200;2022-09-27T19:28:38;9.80;1.00
296;DHT22;132;48.770;9.200;2022-09-27T19:31:25;9.00;1.00
296;DHT22;132;48.770;9.200;2022-09-27T19:34:14;8.80;1.00
296;DHT22;132;48.770;9.200;2022-09-27T19:37:01;9.10;1.00
296;DHT22;132;48.770;9.200;2022-09-27T19:39:47;8.70;1.00
296;DHT22;132;48.770;9.200;2022-09-27T19:42:34;8.70;1.00
296;DHT22;132;48.770;9.200;2022-09-27T19:45:20;8.60;1.00
296;DHT22;132;48.770;9.200;2022-09-27T19:48:07;8.50;1.00
296;DHT22;132;48.770;9.200;2022-09-27T19:50:55;8.60;1.00
296;DHT22;132;48.770;9.200;2022-09-27T19:53:42;8.60;1.00
296;DHT22;132;48.770;9.200;2022-09-27T19:56:29;9.30;1.00
296;DHT22;132;48.770;9.200;2022-09-27T19:59:15;9.00;1.00
296;DHT22;132;48.770;9.200;2022-09-27T20:02:02;9.80;1.00
296;DHT22;132;48.770;9.200;2022-09-27T20:04:48;9.40;1.00
296;DHT22;132;48.770;9.200;2022-09-27T20:07:36;7.50;1.00
296;DHT22;132;48.770;9.200;2022-09-27T20:10:23;8.50;1.00
296;DHT22;132;48.770;9.200;2022-09-27T20:13:09;8.40;1.00
296;DHT22;132;48.770;9.200;2022-09-27T20:16:08;8.50;1.00
296;DHT22;132;48.770;9.200;2022-09-27T20:18:57;8.60;1.00
296;DHT22;132;48.770;9.200;2022-09-27T20:21:44;8.40;1.00
296;DHT22;132;48.770;9.200;2022-09-27T20:24:31;8.40;1.00
296;DHT22;132;48.770;9.200;2022-09-27T20:27:17;9.10;1.00
296;DHT22;132;48.770;9.200;2022-09-27T20:30:06;8.40;1.00
296;DHT22;132;48.770;9.200;2022-09-27T20:32:52;8.50;1.00
296;DHT22;132;48.770;9.200;2022-09-27T20:35:58;8.50;1.00
296;DHT22;132;48.770;9.200;2022-09-27T20:38:55;8.10;1.00
296;DHT22;132;48.770;9.200;2022-09-27T20:41:44;8.40;1.00
296;DHT22;132;48.770;9.200;2022-09-27T20:44:31;8.10;1.00
296;DHT22;132;48.770;9.200;2022-09-27T20:47:18;8.40;1.00
296;DHT22;132;48.770;9.200;2022-09-27T20:50:05;8.70;1.00
296;DHT22;132;48.770;9.200;2022-09-27T20:52:52;8.40;1.00
296;DHT22;132;48.770;9.200;2022-09-27T20:55:38;8.20;1.00
296;DHT22;132;48.770;9.200;2022-09-27T20:58:25;8.30;1.00
296;DHT22;132;48.770;9.200;2022-09-27T21:01:12;8.30;1.00
296;DHT22;132;48.770;9.200;2022-09-27T21:04:01;8.30;1.00
296;DHT22;132;48.770;9.200;2022-09-27T21:06:48;8.20;1.00
296;DHT22;132;48.770;9.200;2022-09-27T21:09:35;8.20;1.00
296;DHT22;132;48.770;9.200;2022-09-27T21:12:23;8.10;1.00
296;DHT22;132;48.770;9.200;2022-09-27T21:15:10;8.20;1.00
296;DHT22;132;48.770;9.200;2022-09-27T21:17:57;9.40;1.00
296;DHT22;132;48.770;9.200;2022-09-27T21:20:43;8.90;1.00
296;DHT22;132;48.770;9.200;2022-09-27T21:23:31;9.30;1.00
296;DHT22;132;48.770;9.200;2022-09-27T21:26:19;8.70;1.00
296;DHT22;132;48.770;9.200;2022-09-27T21:29:08;9.00;1.00
296;DHT22;132;48.770;9.200;2022-09-27T21:31:55;8.30;1.00
296;DHT22;132;48.770;9.200;2022-09-27T21:34:42;8.80;1.00
296;DHT22;132;48.770;9.200;2022-09-27T21:37:28;9.30;1.00
296;DHT22;132;48.770;9.200;2022-09-27T21:40:15;8.60;1.00
296;DHT22;132;48.770;9.200;2022-09-27T21:43:02;8.40;1.00
296;DHT22;132;48.770;9.200;2022-09-27T21:45:49;8.80;1.00
296;DHT22;132;48.770;9.200;2022-09-27T21:48:37;9.10;1.00
296;DHT22;132;48.770;9.200;2022-09-27T21:51:26;8.60;1.00
296;DHT22;132;48.770;9.200;2022-09-27T21:54:14;8.90;1.00
296;DHT22;132;48.770;9.200;2022-09-27T21:57:00;9.00;1.00
296;DHT22;132;48.770;9.200;2022-09-27T21:59:48;9.40;1.00
296;DHT22;132;48.770;9.200;2022-09-27T22:02:34;10.00;1.00
296;DHT22;132;48.770;9.200;2022-09-27T22:05:21;9.40;1.00
296;DHT22;132;48.770;9.200;2022-09-27T22:08:07;8.80;1.00
296;DHT22;132;48.770;9.200;2022-09-27T22:10:55;8.90;1.00
296;DHT22;132;48.770;9.200;2022-09-27T22:13:41;9.20;1.00
296;DHT22;132;48.770;9.200;2022-09-27T22:16:28;9.00;1.00
296;DHT22;132;48.770;9.200;2022-09-27T22:19:18;9.80;1.00